Hlavní strana
METAR-TAF:

METAR-TAF

Letiště :

Dněpropetrovsk, Ukrajina

zeměpisná šířka: 48-21-26N, zeměpisná délka: 035-06-02E, výška: 147 m

Aktuální stav počasí

Zpráva byla vytvořena před 12 minutami, v 05:00 UTC
Severní vítr 10 kt, proměnlivý mezi severoseverozápadním a severovýchodním
Teplota 21°C
Vlhkost vzduchu 73%
Tlak 1015 hPa
Viditelnost 10 km a více
Žádná oblačnost pod 1500 m, nevyskytují se cumulonimby.

METAR: UKDD 220500Z 01005MPS 330V040 CAVOK 21/16 Q1015 R08/090070 NOSIG

Čas: 08:12 (05:12 UTC)

Předpověď počasí

Zpráva byla vytvořena před 6 hodinami a 9 minutami, v 23:03 UTC
Předpověď platná od 22 v 00 UTC do 22 v 24 UTC
Severoseverozápadní vítr 8 kt
Viditelnost 10 km a více
Žádná oblačnost pod 1500 m, nevyskytují se cumulonimby.
Změna
od 22 v 03 UTC do 22 v 05 UTC
Severní vítr 12 kt

TAF: UKDD 212303Z 2200/2224 33004MPS CAVOK TX28/2212Z TN17/2202Z BECMG 2203/2205 36006MPS

Stav a předpovědi počasí z více než 4 000 letišť (zprávy METAR a TAF).

Červené a žluté tečky na mapě představují dostupné meteorologické stanice.

Když kurzor umístíte na tečku, zobrazí se název stanice.

Pak kliknutím zobrazíte stav a předpověď počasí.

Chcete-li změnit mapu, kliknutím na zelené tlačítko se znaménkem +mapu přiblížíte, kliknutím na zelené tlačítko se znaménkem – mapu oddálíte a kliknutím na zelené šipky přejdete na sousední mapy.


METAR-TAF: